This is the latest recevied weather packets stored in our database for station/object HP1COO-13. If no packets are shown the sender has not sent any weather packets the latest 1 day(s).
| Time | Temp. | Humidity | Pressure | Rain* | Wind** | Luminosity | Snow |
|---|---|---|---|---|---|---|---|
| 1777992911 | 30.56° C | 76% | 1009.6 hPa | 0 mm | 1.79 m/s, 222° | - | - |
| 1777992278 | 30° C | 77% | 1009.8 hPa | 0 mm | 0 m/s | - | - |
| 1777991645 | 30.56° C | 76% | 1009.5 hPa | 0 mm | 0.89 m/s, 181° | - | - |
| 1777990379 | 30° C | 76% | 1009.6 hPa | 0 mm | 0.89 m/s, 21° | - | - |
| 1777988480 | 30° C | 77% | 1009.2 hPa | 0 mm | 0.89 m/s, 244° | - | - |
| 1777987847 | 30° C | 78% | 1009.2 hPa | 0 mm | 0.45 m/s, 293° | - | - |
| 1777987214 | 29.44° C | 80% | 1009.1 hPa | 0 mm | 0.89 m/s, 221° | - | - |
| 1777986581 | 28.33° C | 83% | 1009.2 hPa | 0 mm | 0.45 m/s, 11° | - | - |
| 1777986380 | 28.33° C | 84% | 1009.4 hPa | 0 mm | 1.34 m/s, 355° | - | - |
| 1777985948 | 27.78° C | 85% | 1009 hPa | 0 mm | 0 m/s | - | - |
| 1777985315 | 27.22° C | 88% | 1009 hPa | 0 mm | 0.45 m/s, 16° | - | - |
| 1777984682 | 26.67° C | 89% | 1008.8 hPa | 0 mm | 0.89 m/s, 360° | - | - |
| 1777984049 | 26.11° C | 90% | 1008.9 hPa | 0 mm | 0.89 m/s, 30° | - | - |
| 1777983416 | 26.11° C | 91% | 1008.6 hPa | 0 mm | 0.45 m/s, 17° | - | - |
| 1777982783 | 26.11° C | 91% | 1008.3 hPa | 0 mm | 0.45 m/s, 349° | - | - |
| 1777982150 | 25.56° C | 92% | 1008.4 hPa | 0 mm | 1.79 m/s, 358° | - | - |
| 1777981517 | 25.56° C | 93% | 1008.2 hPa | 0 mm | 0.89 m/s, 3° | - | - |
| 1777980884 | 25.56° C | 93% | 1008.1 hPa | 0 mm | 0.89 m/s, 360° | - | - |
| 1777980251 | 25° C | 94% | 1008.1 hPa | 0 mm | 0.89 m/s, 322° | - | - |
| 1777979618 | 25° C | 95% | 1008.4 hPa | 0 mm | 0.45 m/s, 345° | - | - |
| 1777978985 | 25° C | 95% | 1008.1 hPa | 0 mm | 0.45 m/s, 264° | - | - |
| 1777978352 | 25° C | 94% | 1007.9 hPa | 0 mm | 0.45 m/s, 25° | - | - |
| 1777977719 | 25.56° C | 94% | 1008.1 hPa | 0 mm | 0.45 m/s, 311° | - | - |
| 1777977086 | 25.56° C | 93% | 1007.5 hPa | 0 mm | 0.45 m/s, 7° | - | - |
| 1777975820 | 25.56° C | 93% | 1007.5 hPa | 0 mm | 0 m/s | - | - |
* Rain latest hour (hover to see other rain measurements)
** Current wind speed in m/s (hover to see current wind gust speed)